createdAt,value
2018-11-10T00:01:10.215Z,27.20
2018-11-10T00:03:37.365Z,27.25
2018-11-10T00:06:04.418Z,27.75
2018-11-10T00:08:33.721Z,27.20
2018-11-10T00:11:01.275Z,29.43
2018-11-10T00:13:28.832Z,30.20
2018-11-10T00:15:56.398Z,27.90
2018-11-10T00:18:23.953Z,28.95
2018-11-10T00:20:51.413Z,27.43
2018-11-10T00:23:18.869Z,26.73
2018-11-10T00:25:45.924Z,26.12
2018-11-10T00:28:13.276Z,29.27
2018-11-10T00:30:42.010Z,28.87
2018-11-10T00:33:09.113Z,27.43
2018-11-10T00:35:37.802Z,28.63
2018-11-10T00:38:04.847Z,28.57
2018-11-10T00:40:33.485Z,30.70
2018-11-10T00:43:00.482Z,27.43
2018-11-10T00:45:27.530Z,26.20
2018-11-10T00:47:54.477Z,26.33
2018-11-10T00:50:21.525Z,25.43
2018-11-10T00:52:48.581Z,24.97
2018-11-10T00:55:15.622Z,26.33
2018-11-10T00:57:42.670Z,25.10
2018-11-10T01:00:09.728Z,25.77
2018-11-10T01:02:36.768Z,26.70
2018-11-10T01:05:03.816Z,22.83
2018-11-10T01:07:30.871Z,22.07
2018-11-10T01:09:57.912Z,23.00
2018-11-10T01:12:24.961Z,22.33
2018-11-10T01:14:52.016Z,22.20
2018-11-10T01:17:19.059Z,19.70
2018-11-10T01:19:46.108Z,19.73
2018-11-10T01:22:14.897Z,21.00
2018-11-10T01:24:41.893Z,23.53
2018-11-10T01:27:08.901Z,24.00
2018-11-10T01:29:35.943Z,24.13
2018-11-10T01:32:03.813Z,23.03
2018-11-10T01:34:30.810Z,24.20
2018-11-10T01:36:57.805Z,24.93
2018-11-10T01:39:24.853Z,24.03
2018-11-10T01:41:51.907Z,24.07
2018-11-10T01:44:18.949Z,25.50
2018-11-10T01:46:45.998Z,21.80
2018-11-10T01:49:13.050Z,27.17
2018-11-10T01:51:40.095Z,26.73
2018-11-10T01:54:07.451Z,25.53
2018-11-10T01:56:34.506Z,27.90
2018-11-10T01:59:01.548Z,25.97
2018-11-10T02:01:29.620Z,26.00
2018-11-10T02:03:56.669Z,26.47
2018-11-10T02:06:23.724Z,26.40
2018-11-10T02:09:08.625Z,25.23
2018-11-10T02:11:55.620Z,24.67
2018-11-10T02:14:38.978Z,25.57
2018-11-10T02:17:22.097Z,22.77
2018-11-10T02:20:07.808Z,22.90
2018-11-10T02:22:42.521Z,25.43
2018-11-10T02:25:13.233Z,21.60
2018-11-10T02:27:45.419Z,21.57
2018-11-10T02:30:18.903Z,21.77
2018-11-10T02:33:06.008Z,20.53
2018-11-10T02:35:52.843Z,23.23
2018-11-10T02:38:28.590Z,25.20
2018-11-10T02:40:55.559Z,23.10
2018-11-10T02:43:22.553Z,22.17
2018-11-10T02:45:49.603Z,23.63
2018-11-10T02:48:16.657Z,26.97
2018-11-10T02:50:43.598Z,24.33
2018-11-10T02:53:10.671Z,24.20
2018-11-10T02:55:37.698Z,23.37
2018-11-10T02:58:04.747Z,25.33
2018-11-10T03:00:31.799Z,22.53
2018-11-10T03:02:58.841Z,24.87
2018-11-10T03:05:25.893Z,26.37
2018-11-10T03:07:54.377Z,23.90
2018-11-10T03:10:21.371Z,20.87
2018-11-10T03:12:48.367Z,25.73
2018-11-10T03:15:15.415Z,25.30
2018-11-10T03:17:42.469Z,26.60
2018-11-10T03:20:10.234Z,27.80
2018-11-10T03:22:37.277Z,26.33
2018-11-10T03:25:04.326Z,26.47
2018-11-10T03:27:31.318Z,27.43
2018-11-10T03:29:58.319Z,27.73
2018-11-10T03:32:25.374Z,26.77
2018-11-10T03:34:52.418Z,27.17
2018-11-10T03:37:20.797Z,28.70
2018-11-10T03:39:47.845Z,27.77
2018-11-10T03:42:15.659Z,26.33
2018-11-10T03:44:42.667Z,27.07
2018-11-10T03:47:09.816Z,27.17
2018-11-10T03:49:36.859Z,27.53
2018-11-10T03:52:05.547Z,26.03
2018-11-10T03:54:32.598Z,25.97
2018-11-10T03:57:01.282Z,25.67
2018-11-10T03:59:28.336Z,26.07
2018-11-10T04:01:56.608Z,27.30
2018-11-10T04:04:23.656Z,27.27
2018-11-10T04:06:56.435Z,26.30
2018-11-10T04:09:23.487Z,26.60
2018-11-10T04:11:50.433Z,26.23
2018-11-10T04:14:17.482Z,27.03
2018-11-10T04:16:44.538Z,25.67
2018-11-10T04:19:11.580Z,27.90
2018-11-10T04:21:38.577Z,27.13
2018-11-10T04:24:05.577Z,28.13
2018-11-10T04:26:32.623Z,27.80
2018-11-10T04:28:59.677Z,26.03
2018-11-10T04:31:26.721Z,27.77
2018-11-10T04:33:53.872Z,28.27
2018-11-10T04:36:20.919Z,27.10
2018-11-10T04:38:47.977Z,26.40
2018-11-10T04:41:15.017Z,27.57
2018-11-10T04:43:42.065Z,26.77
2018-11-10T04:46:09.120Z,26.70
2018-11-10T04:48:36.163Z,28.67
2018-11-10T04:51:03.212Z,28.23
2018-11-10T04:53:30.265Z,28.47
2018-11-10T04:55:57.309Z,27.63
2018-11-10T04:58:24.357Z,28.10
2018-11-10T05:00:51.311Z,27.63
2018-11-10T05:03:18.353Z,27.43
2018-11-10T05:05:45.406Z,26.80
2018-11-10T05:08:12.450Z,26.67
2018-11-10T05:10:39.498Z,26.40
2018-11-10T05:13:06.551Z,25.23
2018-11-10T05:15:33.596Z,26.60
2018-11-10T05:18:00.643Z,25.37
2018-11-10T05:20:27.697Z,26.83
2018-11-10T05:22:54.739Z,25.73
2018-11-10T05:25:24.348Z,24.17
2018-11-10T05:27:51.399Z,23.27
2018-11-10T05:30:18.453Z,23.43
2018-11-10T05:32:47.030Z,25.33
2018-11-10T05:35:14.079Z,24.80
2018-11-10T05:37:41.135Z,23.20
2018-11-10T05:40:08.177Z,24.37
2018-11-10T05:42:35.226Z,24.50
2018-11-10T05:45:02.279Z,23.93
2018-11-10T05:47:29.323Z,23.43
2018-11-10T05:49:56.375Z,23.80
2018-11-10T05:52:23.425Z,24.20
2018-11-10T05:54:50.473Z,23.57
2018-11-10T05:57:18.880Z,24.33
2018-11-10T05:59:47.231Z,23.17
2018-11-10T06:02:14.281Z,23.60
2018-11-10T06:04:42.041Z,23.50
2018-11-10T06:07:09.098Z,22.83
2018-11-10T06:09:36.216Z,24.13
2018-11-10T06:12:04.110Z,24.17
2018-11-10T06:14:31.163Z,24.63
2018-11-10T06:16:58.207Z,24.33
2018-11-10T06:19:25.202Z,25.33
2018-11-10T06:21:53.026Z,26.27
2018-11-10T06:24:20.171Z,26.47
2018-11-10T06:26:47.225Z,25.67
2018-11-10T06:29:14.267Z,24.83
2018-11-10T06:31:41.318Z,23.83
2018-11-10T06:34:08.371Z,23.77
2018-11-10T06:36:35.414Z,23.17
2018-11-10T06:39:02.417Z,23.77
2018-11-10T06:41:29.474Z,24.70
2018-11-10T06:43:56.456Z,25.27
2018-11-10T06:46:23.510Z,25.67
2018-11-10T06:48:50.555Z,23.53
2018-11-10T06:51:18.119Z,23.43
2018-11-10T06:53:45.271Z,25.33
2018-11-10T06:56:12.315Z,38.53
2018-11-10T06:58:39.362Z,23.30
2018-11-10T07:01:06.418Z,23.80
2018-11-10T07:03:33.539Z,22.67
2018-11-10T07:06:00.509Z,24.80
2018-11-10T07:08:27.609Z,24.47
2018-11-10T07:10:57.210Z,24.03
2018-11-10T07:13:25.701Z,24.30
2018-11-10T07:15:54.032Z,24.30
2018-11-10T07:18:21.082Z,25.97
2018-11-10T07:20:48.125Z,24.63
2018-11-10T07:23:15.173Z,26.20
2018-11-10T07:25:42.166Z,24.93
2018-11-10T07:28:09.686Z,25.30
2018-11-10T07:30:36.729Z,23.33
2018-11-10T07:33:03.777Z,24.93
2018-11-10T07:35:31.339Z,25.93
2018-11-10T07:37:58.489Z,21.20
2018-11-10T07:40:27.074Z,23.63
2018-11-10T07:42:54.571Z,23.43
2018-11-10T07:45:21.684Z,21.57
2018-11-10T07:47:48.674Z,26.20
2018-11-10T07:50:15.677Z,34.30
2018-11-10T07:52:42.731Z,28.30
2018-11-10T07:55:09.673Z,25.30
2018-11-10T07:57:36.726Z,23.87
2018-11-10T08:00:03.768Z,21.60
2018-11-10T08:02:30.820Z,21.47
2018-11-10T08:04:57.810Z,21.93
2018-11-10T08:07:24.813Z,22.77
2018-11-10T08:09:51.866Z,22.10
2018-11-10T08:12:18.910Z,23.43
2018-11-10T08:14:45.959Z,23.60
2018-11-10T08:17:13.012Z,22.50
2018-11-10T08:19:40.056Z,23.20
2018-11-10T08:22:07.105Z,23.17
2018-11-10T08:24:34.255Z,21.77
2018-11-10T08:27:01.311Z,21.70
2018-11-10T08:29:28.354Z,28.57
2018-11-10T08:31:55.401Z,23.80
2018-11-10T08:34:22.348Z,20.37
2018-11-10T08:36:58.609Z,21.07
2018-11-10T08:39:25.666Z,21.17
2018-11-10T08:41:52.708Z,21.03
2018-11-10T08:44:19.861Z,20.80
2018-11-10T08:46:46.913Z,21.90
2018-11-10T08:49:16.415Z,23.50
2018-11-10T08:51:43.465Z,23.67
2018-11-10T08:54:10.515Z,22.60
2018-11-10T08:56:39.409Z,24.50
2018-11-10T08:59:25.538Z,25.20
2018-11-10T09:01:53.684Z,25.97
2018-11-10T09:04:20.723Z,25.93
2018-11-10T09:06:47.770Z,24.07
2018-11-10T09:09:14.824Z,27.57
2018-11-10T09:11:43.273Z,25.75
2018-11-10T09:14:10.672Z,24.30
2018-11-10T09:16:37.705Z,22.42
2018-11-10T09:19:06.218Z,22.27
2018-11-10T09:21:33.606Z,19.90
2018-11-10T09:24:00.593Z,23.10
2018-11-10T09:26:29.282Z,23.35
2018-11-10T09:28:56.333Z,22.62
2018-11-10T09:31:23.376Z,22.13
2018-11-10T09:33:52.171Z,21.45
2018-11-10T09:36:19.257Z,21.43
2018-11-10T09:38:46.266Z,22.02
2018-11-10T09:41:13.414Z,22.42
2018-11-10T09:43:40.467Z,22.52
2018-11-10T09:46:07.510Z,21.85
2018-11-10T09:48:34.558Z,21.40
2018-11-10T09:51:01.685Z,20.62
2018-11-10T09:53:28.656Z,21.37
2018-11-10T09:55:55.706Z,21.90
2018-11-10T09:58:22.759Z,21.83
2018-11-10T10:00:49.803Z,21.87
2018-11-10T10:03:19.341Z,19.95
2018-11-10T10:05:46.363Z,19.27
2018-11-10T10:08:13.354Z,18.02
2018-11-10T10:10:40.357Z,17.85
2018-11-10T10:13:07.401Z,19.58
2018-11-10T10:15:34.487Z,18.35
2018-11-10T10:18:01.704Z,20.20
2018-11-10T10:20:28.750Z,20.40
2018-11-10T10:22:55.806Z,19.30
2018-11-10T10:25:22.848Z,19.65
2018-11-10T10:27:49.897Z,19.58
2018-11-10T10:30:16.952Z,20.05
2018-11-10T10:32:43.994Z,21.25
2018-11-10T10:35:11.168Z,20.67
2018-11-10T10:37:38.097Z,20.05
2018-11-10T10:40:05.144Z,20.12
2018-11-10T10:42:33.417Z,17.80
2018-11-10T10:45:00.574Z,20.15
2018-11-10T10:47:27.622Z,19.12
2018-11-10T10:49:54.668Z,19.50
2018-11-10T10:52:21.926Z,19.20
2018-11-10T10:54:48.970Z,20.70
2018-11-10T10:57:16.017Z,20.83
2018-11-10T10:59:43.577Z,19.52
2018-11-10T11:02:30.497Z,20.73
2018-11-10T11:04:57.747Z,17.75
2018-11-10T11:07:26.748Z,18.90
2018-11-10T11:09:53.797Z,19.05
2018-11-10T11:12:20.837Z,20.50
2018-11-10T11:14:48.578Z,21.08
2018-11-10T11:17:15.651Z,21.25
2018-11-10T11:19:42.705Z,21.20
2018-11-10T11:22:09.750Z,20.50
2018-11-10T11:24:36.796Z,26.98
2018-11-10T11:27:03.851Z,23.33
2018-11-10T11:29:30.921Z,21.10
2018-11-10T11:31:57.942Z,21.17
2018-11-10T11:34:24.935Z,20.85
2018-11-10T11:36:53.376Z,21.20
2018-11-10T11:39:20.420Z,21.95
2018-11-10T11:41:47.444Z,19.45
2018-11-10T11:44:15.238Z,20.40
2018-11-10T11:46:42.292Z,18.73
2018-11-10T11:49:09.336Z,19.55
2018-11-10T11:51:36.486Z,19.33
2018-11-10T11:54:03.530Z,20.48
2018-11-10T11:56:30.585Z,21.05
2018-11-10T11:58:57.626Z,20.23
2018-11-10T12:01:24.679Z,19.92
2018-11-10T12:03:51.621Z,20.73
2018-11-10T12:06:18.574Z,20.42
2018-11-10T12:08:45.617Z,19.20
2018-11-10T12:11:12.666Z,20.58
2018-11-10T12:13:39.721Z,13.23
2018-11-10T12:16:06.762Z,14.23
2018-11-10T12:18:33.812Z,16.15
2018-11-10T12:21:00.741Z,18.17
2018-11-10T12:23:27.805Z,17.30
2018-11-10T12:25:54.752Z,15.32
2018-11-10T12:28:22.366Z,15.18
2018-11-10T12:30:49.779Z,15.75
2018-11-10T12:33:16.819Z,17.02
2018-11-10T12:35:43.873Z,16.98
2018-11-10T12:38:12.249Z,16.58
2018-11-10T12:40:39.302Z,17.08
2018-11-10T12:43:06.344Z,14.82
2018-11-10T12:45:33.407Z,15.43
2018-11-10T12:48:00.448Z,15.70
2018-11-10T12:50:27.493Z,17.35
2018-11-10T12:52:54.520Z,26.58
2018-11-10T12:55:21.593Z,19.60
2018-11-10T12:57:48.677Z,18.98
2018-11-10T13:00:15.727Z,16.48
2018-11-10T13:02:42.738Z,17.02
2018-11-10T13:05:09.731Z,15.75
2018-11-10T13:07:36.830Z,16.87
2018-11-10T13:10:03.885Z,19.83
2018-11-10T13:12:31.778Z,16.50
2018-11-10T13:14:58.801Z,16.15
2018-11-10T13:17:25.887Z,17.55
2018-11-10T13:19:52.892Z,15.93
2018-11-10T13:22:19.947Z,14.45
2018-11-10T13:24:46.993Z,14.02
2018-11-10T13:27:14.041Z,16.65
2018-11-10T13:29:41.093Z,16.40
2018-11-10T13:32:08.137Z,15.73
2018-11-10T13:34:35.185Z,14.73
2018-11-10T13:37:05.203Z,17.10
2018-11-10T13:39:32.251Z,15.77
2018-11-10T13:41:59.306Z,18.80
2018-11-10T13:44:26.383Z,16.65
2018-11-10T13:46:53.350Z,16.02
2018-11-10T13:49:20.344Z,15.25
2018-11-10T13:51:47.662Z,16.40
2018-11-10T13:54:14.448Z,16.05
2018-11-10T13:56:41.387Z,15.75
2018-11-10T13:59:08.454Z,15.63
2018-11-10T14:01:35.485Z,16.08
2018-11-10T14:04:02.535Z,14.77
2018-11-10T14:06:29.587Z,16.73
2018-11-10T14:08:56.836Z,17.83
2018-11-10T14:11:23.889Z,16.10
2018-11-10T14:13:50.932Z,17.73
2018-11-10T14:16:17.981Z,16.50
2018-11-10T14:18:46.360Z,19.02
2018-11-10T14:21:13.307Z,18.87
2018-11-10T14:23:40.354Z,72.55
2018-11-10T14:26:08.846Z,83.18
2018-11-10T14:28:35.886Z,24.27
2018-11-10T14:31:02.946Z,19.30
2018-11-10T14:33:30.399Z,17.90
2018-11-10T14:35:57.447Z,16.02
2018-11-10T14:38:24.442Z,16.92
2018-11-10T14:40:51.386Z,16.62
2018-11-10T14:43:18.590Z,16.35
2018-11-10T14:45:45.743Z,113.05
2018-11-10T14:48:13.306Z,26.45
2018-11-10T14:50:41.838Z,23.08
2018-11-10T14:53:09.025Z,19.20
2018-11-10T14:55:35.878Z,19.73
2018-11-10T14:58:03.137Z,18.25
2018-11-10T15:00:30.180Z,18.00
2018-11-10T15:02:57.901Z,16.55
2018-11-10T15:05:24.947Z,16.77
2018-11-10T15:07:52.049Z,16.35
2018-11-10T15:10:19.249Z,16.87
2018-11-10T15:12:46.242Z,15.73
2018-11-10T15:15:13.291Z,16.75
2018-11-10T15:17:40.503Z,16.85
2018-11-10T15:20:07.496Z,16.37
2018-11-10T15:22:35.052Z,16.23
2018-11-10T15:25:02.060Z,15.88
2018-11-10T15:27:29.047Z,16.92
2018-11-10T15:29:56.103Z,15.82
2018-11-10T15:32:23.143Z,16.15
2018-11-10T15:34:50.197Z,16.25
2018-11-10T15:37:17.552Z,15.93
2018-11-10T15:39:50.434Z,16.20
2018-11-10T15:42:17.482Z,16.33
2018-11-10T15:44:44.474Z,15.10
2018-11-10T15:47:11.427Z,13.68
2018-11-10T15:49:38.424Z,14.40
2018-11-10T15:52:05.472Z,14.18
2018-11-10T15:54:32.526Z,16.33
2018-11-10T15:56:59.597Z,14.82
2018-11-10T15:59:26.721Z,12.70
2018-11-10T16:01:53.768Z,15.57
2018-11-10T16:04:20.821Z,15.15
2018-11-10T16:06:47.866Z,17.50
2018-11-10T16:09:14.984Z,18.48
2018-11-10T16:11:41.970Z,23.83
2018-11-10T16:14:09.012Z,32.00
2018-11-10T16:16:36.059Z,44.60
2018-11-10T16:19:03.931Z,20.17
2018-11-10T16:21:30.882Z,17.37
2018-11-10T16:23:57.923Z,15.47
2018-11-10T16:26:25.073Z,14.33
2018-11-10T16:28:54.791Z,14.47
2018-11-10T16:31:21.833Z,16.62
2018-11-10T16:33:48.881Z,17.00
2018-11-10T16:36:17.674Z,17.40
2018-11-10T16:38:44.873Z,18.53
2018-11-10T16:41:11.975Z,16.83
2018-11-10T16:43:41.789Z,15.10
2018-11-10T16:46:09.147Z,15.97
2018-11-10T16:48:36.193Z,17.05
2018-11-10T16:51:03.342Z,15.90
2018-11-10T16:53:30.391Z,18.50
2018-11-10T16:55:58.366Z,63.53
2018-11-10T16:58:25.307Z,101.00
2018-11-10T17:00:52.358Z,88.67
2018-11-10T17:03:19.405Z,22.87
2018-11-10T17:05:46.406Z,18.63
2018-11-10T17:08:13.350Z,19.27
2018-11-10T17:10:40.369Z,18.73
2018-11-10T17:13:07.394Z,24.00
2018-11-10T17:15:34.563Z,21.20
2018-11-10T17:18:01.496Z,25.13
2018-11-10T17:20:28.541Z,23.80
2018-11-10T17:22:55.588Z,19.23
2018-11-10T17:25:22.642Z,20.67
2018-11-10T17:27:49.739Z,20.07
2018-11-10T17:30:16.888Z,19.33
2018-11-10T17:32:43.892Z,19.73
2018-11-10T17:35:10.941Z,19.67
2018-11-10T17:37:37.994Z,18.07
2018-11-10T17:40:05.045Z,17.93
2018-11-10T17:42:32.089Z,19.40
2018-11-10T17:44:59.237Z,20.40
2018-11-10T17:47:26.278Z,21.03
2018-11-10T17:49:53.234Z,20.73
2018-11-10T17:52:20.483Z,22.73
2018-11-10T17:54:47.488Z,21.50
2018-11-10T17:57:14.476Z,24.50
2018-11-10T17:59:43.775Z,20.00
2018-11-10T18:02:11.091Z,20.83
2018-11-10T18:04:38.076Z,20.27
2018-11-10T18:07:08.711Z,23.27
2018-11-10T18:09:35.860Z,24.80
2018-11-10T18:12:02.812Z,28.53
2018-11-10T18:14:30.162Z,22.83
2018-11-10T18:16:57.113Z,26.10
2018-11-10T18:19:24.056Z,26.90
2018-11-10T18:21:52.844Z,26.47
2018-11-10T18:24:19.842Z,26.70
2018-11-10T18:26:46.989Z,26.83
2018-11-10T18:29:13.995Z,26.87
2018-11-10T18:31:41.038Z,25.50
2018-11-10T18:34:08.190Z,27.07
2018-11-10T18:36:35.249Z,28.03
2018-11-10T18:39:02.286Z,28.40
2018-11-10T18:41:29.335Z,29.13
2018-11-10T18:43:58.023Z,26.63
2018-11-10T18:46:25.076Z,29.80
2018-11-10T18:48:52.020Z,31.73
2018-11-10T18:51:18.965Z,45.60
2018-11-10T18:53:46.016Z,44.10
2018-11-10T18:56:13.066Z,40.50
2018-11-10T18:58:40.109Z,36.90
2018-11-10T19:01:07.157Z,30.17
2018-11-10T19:03:34.212Z,55.00
2018-11-10T19:06:01.256Z,72.27
2018-11-10T19:08:28.303Z,71.50
2018-11-10T19:10:57.042Z,69.13
2018-11-10T19:13:24.044Z,47.37
2018-11-10T19:15:51.087Z,72.87
2018-11-10T19:18:18.152Z,44.73
2018-11-10T19:20:46.419Z,38.50
2018-11-10T19:23:13.468Z,33.93
2018-11-10T19:25:41.432Z,32.07
2018-11-10T19:28:08.486Z,30.10
2018-11-10T19:30:35.531Z,30.37
2018-11-10T19:33:02.525Z,32.00
2018-11-10T19:35:31.265Z,29.43
2018-11-10T19:37:58.318Z,29.27
2018-11-10T19:40:25.362Z,29.33
2018-11-10T19:42:53.025Z,29.77
2018-11-10T19:45:20.080Z,37.47
2018-11-10T19:47:47.123Z,33.83
2018-11-10T19:50:15.324Z,29.80
2018-11-10T19:52:43.166Z,30.40
2018-11-10T19:55:10.227Z,29.03
2018-11-10T19:57:37.776Z,29.17
2018-11-10T20:00:04.768Z,29.87
2018-11-10T20:02:31.726Z,30.77
2018-11-10T20:05:00.360Z,28.40
2018-11-10T20:07:27.563Z,30.23
2018-11-10T20:09:54.553Z,29.90
2018-11-10T20:12:23.138Z,30.70
2018-11-10T20:14:50.191Z,30.73
2018-11-10T20:17:17.542Z,30.90
2018-11-10T20:19:44.650Z,30.90
2018-11-10T20:22:17.542Z,31.20
2018-11-10T20:24:44.533Z,30.73
2018-11-10T20:27:11.589Z,32.60
2018-11-10T20:29:38.725Z,32.33
2018-11-10T20:32:05.780Z,29.63
2018-11-10T20:34:32.826Z,30.47
2018-11-10T20:36:59.878Z,32.47
2018-11-10T20:39:28.048Z,32.87
2018-11-10T20:41:55.093Z,33.03
2018-11-10T20:44:22.152Z,31.70
2018-11-10T20:46:49.298Z,34.67
2018-11-10T20:49:17.258Z,47.10
2018-11-10T20:51:44.299Z,158.53
2018-11-10T20:54:11.373Z,110.20
2018-11-10T20:56:38.614Z,46.03
2018-11-10T20:59:05.559Z,36.07
2018-11-10T21:01:32.609Z,32.87
2018-11-10T21:03:59.662Z,34.13
2018-11-10T21:06:27.874Z,31.77
2018-11-10T21:08:54.983Z,31.33
2018-11-10T21:11:22.852Z,32.30
2018-11-10T21:13:49.902Z,73.37
2018-11-10T21:16:16.956Z,49.03
2018-11-10T21:18:43.997Z,62.47
2018-11-10T21:21:11.046Z,59.80
2018-11-10T21:23:38.100Z,77.23
2018-11-10T21:26:05.144Z,83.27
2018-11-10T21:28:32.636Z,40.03
2018-11-10T21:30:59.649Z,39.90
2018-11-10T21:33:26.756Z,35.03
2018-11-10T21:35:53.748Z,35.40
2018-11-10T21:38:20.794Z,33.17
2018-11-10T21:40:47.946Z,32.97
2018-11-10T21:43:16.685Z,33.30
2018-11-10T21:45:43.736Z,35.60
2018-11-10T21:48:10.677Z,37.00
2018-11-10T21:50:37.694Z,33.17
2018-11-10T21:53:04.950Z,31.90
2018-11-10T21:55:32.081Z,33.27
2018-11-10T21:57:59.581Z,31.97
2018-11-10T22:00:26.793Z,33.93
2018-11-10T22:02:53.841Z,33.03
2018-11-10T22:05:20.895Z,33.17
2018-11-10T22:07:47.937Z,34.10
2018-11-10T22:10:16.522Z,34.00
2018-11-10T22:12:43.519Z,33.97
2018-11-10T22:15:10.520Z,34.07
2018-11-10T22:17:37.510Z,33.20
2018-11-10T22:20:04.615Z,34.17
2018-11-10T22:22:31.757Z,33.10
2018-11-10T22:24:58.717Z,33.70
2018-11-10T22:27:25.873Z,34.03
2018-11-10T22:29:52.910Z,36.30
2018-11-10T22:32:19.962Z,35.67
2018-11-10T22:34:48.342Z,35.23
2018-11-10T22:37:15.395Z,37.30
2018-11-10T22:39:42.438Z,37.30
2018-11-10T22:42:09.485Z,36.27
2018-11-10T22:44:36.540Z,35.97
2018-11-10T22:47:03.581Z,36.83
2018-11-10T22:49:30.632Z,35.80
2018-11-10T22:51:57.684Z,35.10
2018-11-10T22:54:24.730Z,35.20
2018-11-10T22:56:51.781Z,40.10
2018-11-10T22:59:18.831Z,45.47
2018-11-10T23:01:45.874Z,35.37
2018-11-10T23:04:13.230Z,36.70
2018-11-10T23:06:40.995Z,34.10
2018-11-10T23:09:08.048Z,41.80
2018-11-10T23:11:35.092Z,40.30
2018-11-10T23:14:02.043Z,35.57
2018-11-10T23:16:29.087Z,45.07
2018-11-10T23:18:56.043Z,36.20
2018-11-10T23:21:23.087Z,38.07
2018-11-10T23:23:50.036Z,35.73
2018-11-10T23:26:17.593Z,34.03
2018-11-10T23:28:44.649Z,33.10
2018-11-10T23:31:11.691Z,41.20
2018-11-10T23:33:40.373Z,32.03
2018-11-10T23:36:07.421Z,31.63
2018-11-10T23:38:34.478Z,34.33
2018-11-10T23:41:01.518Z,33.97
2018-11-10T23:43:28.566Z,31.33
2018-11-10T23:45:55.620Z,31.00
2018-11-10T23:48:22.663Z,33.30
2018-11-10T23:50:51.351Z,34.10
2018-11-10T23:53:18.400Z,31.93
2018-11-10T23:55:45.454Z,30.90
2018-11-10T23:58:12.395Z,30.57
